sensor_id;sensor_type;location;lat;lon;timestamp;temperature;humidity
41557;DHT22;27720;51.992;5.890;2022-07-04T00:00:13;20.20;69.20
41557;DHT22;27720;51.992;5.890;2022-07-04T00:02:40;20.10;69.30
41557;DHT22;27720;51.992;5.890;2022-07-04T00:05:07;20.10;69.30
41557;DHT22;27720;51.992;5.890;2022-07-04T00:07:46;20.10;69.50
41557;DHT22;27720;51.992;5.890;2022-07-04T00:10:15;20.00;69.50
41557;DHT22;27720;51.992;5.890;2022-07-04T00:12:41;20.00;69.60
41557;DHT22;27720;51.992;5.890;2022-07-04T00:15:09;19.90;69.80
41557;DHT22;27720;51.992;5.890;2022-07-04T00:17:40;19.90;69.80
41557;DHT22;27720;51.992;5.890;2022-07-04T00:20:06;19.90;69.80
41557;DHT22;27720;51.992;5.890;2022-07-04T00:22:33;19.90;69.80
41557;DHT22;27720;51.992;5.890;2022-07-04T00:24:59;19.90;69.90
41557;DHT22;27720;51.992;5.890;2022-07-04T00:27:25;19.80;69.90
41557;DHT22;27720;51.992;5.890;2022-07-04T00:29:51;19.80;69.90
41557;DHT22;27720;51.992;5.890;2022-07-04T00:32:17;19.80;70.00
41557;DHT22;27720;51.992;5.890;2022-07-04T00:34:43;19.80;70.10
41557;DHT22;27720;51.992;5.890;2022-07-04T00:37:09;19.70;70.10
41557;DHT22;27720;51.992;5.890;2022-07-04T00:39:35;19.70;70.20
41557;DHT22;27720;51.992;5.890;2022-07-04T00:42:01;19.70;70.30
41557;DHT22;27720;51.992;5.890;2022-07-04T00:44:27;19.60;70.40
41557;DHT22;27720;51.992;5.890;2022-07-04T00:46:53;19.60;70.50
41557;DHT22;27720;51.992;5.890;2022-07-04T00:49:18;19.50;70.70
41557;DHT22;27720;51.992;5.890;2022-07-04T00:51:45;19.50;70.80
41557;DHT22;27720;51.992;5.890;2022-07-04T00:54:15;19.50;70.90
41557;DHT22;27720;51.992;5.890;2022-07-04T00:56:45;19.50;71.00
41557;DHT22;27720;51.992;5.890;2022-07-04T00:59:11;19.40;71.10
41557;DHT22;27720;51.992;5.890;2022-07-04T01:01:37;19.40;71.30
41557;DHT22;27720;51.992;5.890;2022-07-04T01:04:04;19.40;71.30
41557;DHT22;27720;51.992;5.890;2022-07-04T01:06:31;19.30;71.30
41557;DHT22;27720;51.992;5.890;2022-07-04T01:08:57;19.30;72.00
41557;DHT22;27720;51.992;5.890;2022-07-04T01:11:23;19.30;71.40
41557;DHT22;27720;51.992;5.890;2022-07-04T01:13:49;19.30;71.50
41557;DHT22;27720;51.992;5.890;2022-07-04T01:16:15;19.30;71.60
41557;DHT22;27720;51.992;5.890;2022-07-04T01:18:41;19.20;71.60
41557;DHT22;27720;51.992;5.890;2022-07-04T01:21:07;19.20;71.80
41557;DHT22;27720;51.992;5.890;2022-07-04T01:23:40;19.20;71.90
41557;DHT22;27720;51.992;5.890;2022-07-04T01:26:06;19.10;71.90
41557;DHT22;27720;51.992;5.890;2022-07-04T01:28:32;19.10;72.00
41557;DHT22;27720;51.992;5.890;2022-07-04T01:30:58;19.10;72.10
41557;DHT22;27720;51.992;5.890;2022-07-04T01:33:24;19.00;72.80
41557;DHT22;27720;51.992;5.890;2022-07-04T01:35:49;19.00;72.30
41557;DHT22;27720;51.992;5.890;2022-07-04T01:38:16;19.00;72.40
41557;DHT22;27720;51.992;5.890;2022-07-04T01:40:42;18.90;72.40
41557;DHT22;27720;51.992;5.890;2022-07-04T01:43:08;18.90;72.50
41557;DHT22;27720;51.992;5.890;2022-07-04T01:45:34;18.90;72.50
41557;DHT22;27720;51.992;5.890;2022-07-04T01:48:07;18.90;72.70
41557;DHT22;27720;51.992;5.890;2022-07-04T01:50:34;18.80;72.70
41557;DHT22;27720;51.992;5.890;2022-07-04T01:53:00;18.80;72.80
41557;DHT22;27720;51.992;5.890;2022-07-04T01:55:26;18.80;73.00
41557;DHT22;27720;51.992;5.890;2022-07-04T01:57:52;18.70;73.00
41557;DHT22;27720;51.992;5.890;2022-07-04T02:00:18;18.70;73.10
41557;DHT22;27720;51.992;5.890;2022-07-04T02:03:03;18.70;73.10
41557;DHT22;27720;51.992;5.890;2022-07-04T02:05:29;18.60;73.20
41557;DHT22;27720;51.992;5.890;2022-07-04T02:07:54;18.60;73.30
41557;DHT22;27720;51.992;5.890;2022-07-04T02:10:21;18.60;73.40
41557;DHT22;27720;51.992;5.890;2022-07-04T02:12:46;18.50;73.50
41557;DHT22;27720;51.992;5.890;2022-07-04T02:15:31;18.50;73.50
41557;DHT22;27720;51.992;5.890;2022-07-04T02:17:57;18.50;73.60
41557;DHT22;27720;51.992;5.890;2022-07-04T02:20:24;18.50;73.70
41557;DHT22;27720;51.992;5.890;2022-07-04T02:22:50;18.50;73.80
41557;DHT22;27720;51.992;5.890;2022-07-04T02:25:15;18.40;73.80
41557;DHT22;27720;51.992;5.890;2022-07-04T02:27:41;18.40;73.90
41557;DHT22;27720;51.992;5.890;2022-07-04T02:30:08;18.30;74.50
41557;DHT22;27720;51.992;5.890;2022-07-04T02:32:34;18.30;74.00
41557;DHT22;27720;51.992;5.890;2022-07-04T02:35:01;18.30;74.10
41557;DHT22;27720;51.992;5.890;2022-07-04T02:37:27;18.20;74.10
41557;DHT22;27720;51.992;5.890;2022-07-04T02:39:53;18.20;74.20
41557;DHT22;27720;51.992;5.890;2022-07-04T02:42:18;18.20;74.30
41557;DHT22;27720;51.992;5.890;2022-07-04T02:44:44;18.10;74.30
41557;DHT22;27720;51.992;5.890;2022-07-04T02:47:11;18.20;74.50
41557;DHT22;27720;51.992;5.890;2022-07-04T02:49:37;18.10;74.70
41557;DHT22;27720;51.992;5.890;2022-07-04T02:52:03;18.10;74.40
41557;DHT22;27720;51.992;5.890;2022-07-04T02:54:28;18.10;74.50
41557;DHT22;27720;51.992;5.890;2022-07-04T02:56:54;18.00;74.60
41557;DHT22;27720;51.992;5.890;2022-07-04T02:59:20;18.00;74.70
41557;DHT22;27720;51.992;5.890;2022-07-04T03:01:46;18.00;74.90
41557;DHT22;27720;51.992;5.890;2022-07-04T03:04:14;18.00;75.00
41557;DHT22;27720;51.992;5.890;2022-07-04T03:06:40;18.00;75.00
41557;DHT22;27720;51.992;5.890;2022-07-04T03:09:08;18.00;75.20
41557;DHT22;27720;51.992;5.890;2022-07-04T03:11:34;18.00;75.40
41557;DHT22;27720;51.992;5.890;2022-07-04T03:14:00;17.90;75.50
41557;DHT22;27720;51.992;5.890;2022-07-04T03:16:25;18.00;75.70
41557;DHT22;27720;51.992;5.890;2022-07-04T03:18:51;18.00;75.80
41557;DHT22;27720;51.992;5.890;2022-07-04T03:21:17;17.90;75.80
41557;DHT22;27720;51.992;5.890;2022-07-04T03:23:42;17.90;75.90
41557;DHT22;27720;51.992;5.890;2022-07-04T03:26:26;17.90;76.00
41557;DHT22;27720;51.992;5.890;2022-07-04T03:28:52;17.90;76.20
41557;DHT22;27720;51.992;5.890;2022-07-04T03:31:19;17.90;76.20
41557;DHT22;27720;51.992;5.890;2022-07-04T03:33:45;17.90;76.30
41557;DHT22;27720;51.992;5.890;2022-07-04T03:36:11;17.90;76.40
41557;DHT22;27720;51.992;5.890;2022-07-04T03:38:37;17.80;76.30
41557;DHT22;27720;51.992;5.890;2022-07-04T03:41:03;17.80;76.40
41557;DHT22;27720;51.992;5.890;2022-07-04T03:43:28;17.80;76.50
41557;DHT22;27720;51.992;5.890;2022-07-04T03:45:54;17.70;76.50
41557;DHT22;27720;51.992;5.890;2022-07-04T03:48:20;17.70;76.60
41557;DHT22;27720;51.992;5.890;2022-07-04T03:50:46;17.70;76.70
41557;DHT22;27720;51.992;5.890;2022-07-04T03:53:12;17.70;76.70
41557;DHT22;27720;51.992;5.890;2022-07-04T03:55:38;17.70;76.90
41557;DHT22;27720;51.992;5.890;2022-07-04T03:58:05;17.70;76.90
41557;DHT22;27720;51.992;5.890;2022-07-04T04:00:31;17.70;77.00
41557;DHT22;27720;51.992;5.890;2022-07-04T04:02:58;17.70;77.10
41557;DHT22;27720;51.992;5.890;2022-07-04T04:05:24;17.70;77.20
41557;DHT22;27720;51.992;5.890;2022-07-04T04:07:54;17.70;77.30
41557;DHT22;27720;51.992;5.890;2022-07-04T04:10:20;17.70;77.40
41557;DHT22;27720;51.992;5.890;2022-07-04T04:12:46;17.70;77.50
41557;DHT22;27720;51.992;5.890;2022-07-04T04:15:12;17.70;77.70
41557;DHT22;27720;51.992;5.890;2022-07-04T04:17:37;17.70;77.80
41557;DHT22;27720;51.992;5.890;2022-07-04T04:20:04;17.70;78.00
41557;DHT22;27720;51.992;5.890;2022-07-04T04:22:30;17.70;78.10
41557;DHT22;27720;51.992;5.890;2022-07-04T04:24:56;17.70;78.30
41557;DHT22;27720;51.992;5.890;2022-07-04T04:27:22;17.70;78.30
41557;DHT22;27720;51.992;5.890;2022-07-04T04:29:48;17.70;78.60
41557;DHT22;27720;51.992;5.890;2022-07-04T04:32:13;17.60;78.60
41557;DHT22;27720;51.992;5.890;2022-07-04T04:34:39;17.70;78.90
41557;DHT22;27720;51.992;5.890;2022-07-04T04:37:05;17.70;79.00
41557;DHT22;27720;51.992;5.890;2022-07-04T04:39:30;17.70;79.00
41557;DHT22;27720;51.992;5.890;2022-07-04T04:41:56;17.70;79.20
41557;DHT22;27720;51.992;5.890;2022-07-04T04:44:22;17.70;79.30
41557;DHT22;27720;51.992;5.890;2022-07-04T04:46:48;17.70;79.40
41557;DHT22;27720;51.992;5.890;2022-07-04T04:49:13;17.70;79.40
41557;DHT22;27720;51.992;5.890;2022-07-04T04:51:39;17.70;79.50
41557;DHT22;27720;51.992;5.890;2022-07-04T04:54:06;17.70;79.50
41557;DHT22;27720;51.992;5.890;2022-07-04T04:56:31;17.80;79.60
41557;DHT22;27720;51.992;5.890;2022-07-04T04:58:57;17.70;79.70
41557;DHT22;27720;51.992;5.890;2022-07-04T05:01:23;17.80;80.00
41557;DHT22;27720;51.992;5.890;2022-07-04T05:03:49;17.70;80.20
41557;DHT22;27720;51.992;5.890;2022-07-04T05:06:14;17.80;80.40
41557;DHT22;27720;51.992;5.890;2022-07-04T05:08:40;17.70;80.50
41557;DHT22;27720;51.992;5.890;2022-07-04T05:11:06;17.70;80.80
41557;DHT22;27720;51.992;5.890;2022-07-04T05:13:32;17.70;80.90
41557;DHT22;27720;51.992;5.890;2022-07-04T05:15:58;17.70;81.00
41557;DHT22;27720;51.992;5.890;2022-07-04T05:18:23;17.80;81.10
41557;DHT22;27720;51.992;5.890;2022-07-04T05:20:49;17.80;81.80
41557;DHT22;27720;51.992;5.890;2022-07-04T05:23:15;17.80;81.20
41557;DHT22;27720;51.992;5.890;2022-07-04T05:25:41;17.80;81.40
41557;DHT22;27720;51.992;5.890;2022-07-04T05:28:06;17.80;81.60
41557;DHT22;27720;51.992;5.890;2022-07-04T05:30:32;17.80;82.40
41557;DHT22;27720;51.992;5.890;2022-07-04T05:32:58;17.90;82.20
41557;DHT22;27720;51.992;5.890;2022-07-04T05:35:26;17.80;82.50
41557;DHT22;27720;51.992;5.890;2022-07-04T05:37:53;17.80;82.70
41557;DHT22;27720;51.992;5.890;2022-07-04T05:40:19;17.80;83.10
41557;DHT22;27720;51.992;5.890;2022-07-04T05:42:47;17.80;83.60
41557;DHT22;27720;51.992;5.890;2022-07-04T05:45:17;17.90;83.40
41557;DHT22;27720;51.992;5.890;2022-07-04T05:47:43;17.90;84.00
41557;DHT22;27720;51.992;5.890;2022-07-04T05:50:10;18.00;84.00
41557;DHT22;27720;51.992;5.890;2022-07-04T05:52:36;18.00;84.00
41557;DHT22;27720;51.992;5.890;2022-07-04T05:55:02;18.10;84.20
41557;DHT22;27720;51.992;5.890;2022-07-04T05:57:34;18.10;84.30
41557;DHT22;27720;51.992;5.890;2022-07-04T06:00:02;18.20;84.70
41557;DHT22;27720;51.992;5.890;2022-07-04T06:02:33;18.20;85.00
41557;DHT22;27720;51.992;5.890;2022-07-04T06:04:59;18.30;85.50
41557;DHT22;27720;51.992;5.890;2022-07-04T06:07:25;18.30;85.40
41557;DHT22;27720;51.992;5.890;2022-07-04T06:09:51;18.40;85.20
41557;DHT22;27720;51.992;5.890;2022-07-04T06:12:16;18.50;85.10
41557;DHT22;27720;51.992;5.890;2022-07-04T06:14:42;18.60;85.10
41557;DHT22;27720;51.992;5.890;2022-07-04T06:17:08;18.80;85.10
41557;DHT22;27720;51.992;5.890;2022-07-04T06:19:34;18.90;85.30
41557;DHT22;27720;51.992;5.890;2022-07-04T06:21:59;18.90;84.90
41557;DHT22;27720;51.992;5.890;2022-07-04T06:24:28;19.00;84.80
41557;DHT22;27720;51.992;5.890;2022-07-04T06:26:54;19.10;84.80
41557;DHT22;27720;51.992;5.890;2022-07-04T06:29:20;19.20;84.60
41557;DHT22;27720;51.992;5.890;2022-07-04T06:31:46;19.20;84.40
41557;DHT22;27720;51.992;5.890;2022-07-04T06:34:14;19.20;84.30
41557;DHT22;27720;51.992;5.890;2022-07-04T06:36:58;19.20;84.20
41557;DHT22;27720;51.992;5.890;2022-07-04T06:39:24;19.30;84.10
41557;DHT22;27720;51.992;5.890;2022-07-04T06:41:50;19.30;84.00
41557;DHT22;27720;51.992;5.890;2022-07-04T06:44:15;19.40;83.90
41557;DHT22;27720;51.992;5.890;2022-07-04T06:46:41;19.40;84.20
41557;DHT22;27720;51.992;5.890;2022-07-04T06:49:07;19.50;83.40
41557;DHT22;27720;51.992;5.890;2022-07-04T06:51:33;19.60;83.10
41557;DHT22;27720;51.992;5.890;2022-07-04T06:53:58;19.60;83.00
41557;DHT22;27720;51.992;5.890;2022-07-04T06:56:24;19.70;82.80
41557;DHT22;27720;51.992;5.890;2022-07-04T06:58:50;19.80;82.60
41557;DHT22;27720;51.992;5.890;2022-07-04T07:01:15;19.90;82.40
41557;DHT22;27720;51.992;5.890;2022-07-04T07:03:41;20.00;82.20
41557;DHT22;27720;51.992;5.890;2022-07-04T07:06:07;20.00;82.10
41557;DHT22;27720;51.992;5.890;2022-07-04T07:08:33;20.10;82.00
41557;DHT22;27720;51.992;5.890;2022-07-04T07:10:59;20.10;82.20
41557;DHT22;27720;51.992;5.890;2022-07-04T07:13:45;20.10;82.10
41557;DHT22;27720;51.992;5.890;2022-07-04T07:16:12;20.20;81.90
41557;DHT22;27720;51.992;5.890;2022-07-04T07:18:38;20.30;81.90
41557;DHT22;27720;51.992;5.890;2022-07-04T07:21:03;20.40;81.80
41557;DHT22;27720;51.992;5.890;2022-07-04T07:23:30;20.40;81.40
41557;DHT22;27720;51.992;5.890;2022-07-04T07:25:55;20.40;81.30
41557;DHT22;27720;51.992;5.890;2022-07-04T07:28:25;20.50;81.20
41557;DHT22;27720;51.992;5.890;2022-07-04T07:30:51;20.60;81.10
41557;DHT22;27720;51.992;5.890;2022-07-04T07:33:16;20.60;81.10
41557;DHT22;27720;51.992;5.890;2022-07-04T07:35:42;20.70;81.00
41557;DHT22;27720;51.992;5.890;2022-07-04T07:38:08;20.70;81.10
41557;DHT22;27720;51.992;5.890;2022-07-04T07:40:34;20.80;80.90
41557;DHT22;27720;51.992;5.890;2022-07-04T07:43:00;20.80;81.20
41557;DHT22;27720;51.992;5.890;2022-07-04T07:45:29;20.80;80.60
41557;DHT22;27720;51.992;5.890;2022-07-04T07:47:54;20.90;80.80
41557;DHT22;27720;51.992;5.890;2022-07-04T07:50:20;20.90;80.70
41557;DHT22;27720;51.992;5.890;2022-07-04T07:52:46;20.90;80.60
41557;DHT22;27720;51.992;5.890;2022-07-04T07:55:14;20.90;80.80
41557;DHT22;27720;51.992;5.890;2022-07-04T07:57:43;20.90;80.90
41557;DHT22;27720;51.992;5.890;2022-07-04T08:00:15;21.00;81.00
41557;DHT22;27720;51.992;5.890;2022-07-04T08:02:41;21.10;81.10
41557;DHT22;27720;51.992;5.890;2022-07-04T08:05:26;21.20;80.80
41557;DHT22;27720;51.992;5.890;2022-07-04T08:07:54;21.40;80.90
41557;DHT22;27720;51.992;5.890;2022-07-04T08:10:21;21.60;80.80
41557;DHT22;27720;51.992;5.890;2022-07-04T08:12:46;21.80;80.30
41557;DHT22;27720;51.992;5.890;2022-07-04T08:15:12;22.00;79.70
41557;DHT22;27720;51.992;5.890;2022-07-04T08:17:38;22.20;80.20
41557;DHT22;27720;51.992;5.890;2022-07-04T08:20:04;22.20;79.10
41557;DHT22;27720;51.992;5.890;2022-07-04T08:22:30;22.30;79.10
41557;DHT22;27720;51.992;5.890;2022-07-04T08:24:59;22.30;79.10
41557;DHT22;27720;51.992;5.890;2022-07-04T08:27:25;22.40;79.00
41557;DHT22;27720;51.992;5.890;2022-07-04T08:29:53;22.40;78.90
41557;DHT22;27720;51.992;5.890;2022-07-04T08:32:19;22.40;78.60
41557;DHT22;27720;51.992;5.890;2022-07-04T08:34:45;22.40;78.50
41557;DHT22;27720;51.992;5.890;2022-07-04T08:37:14;22.50;78.40
41557;DHT22;27720;51.992;5.890;2022-07-04T08:39:40;22.60;78.30
41557;DHT22;27720;51.992;5.890;2022-07-04T08:42:10;22.70;77.80
41557;DHT22;27720;51.992;5.890;2022-07-04T08:44:39;22.70;77.60
41557;DHT22;27720;51.992;5.890;2022-07-04T08:47:09;22.80;77.70
41557;DHT22;27720;51.992;5.890;2022-07-04T08:49:37;22.90;77.20
41557;DHT22;27720;51.992;5.890;2022-07-04T08:52:05;22.90;77.00
41557;DHT22;27720;51.992;5.890;2022-07-04T08:54:34;23.00;77.00
41557;DHT22;27720;51.992;5.890;2022-07-04T08:57:22;23.00;76.70
41557;DHT22;27720;51.992;5.890;2022-07-04T09:00:06;23.10;76.80
41557;DHT22;27720;51.992;5.890;2022-07-04T09:02:34;23.20;76.50
41557;DHT22;27720;51.992;5.890;2022-07-04T09:05:00;23.20;76.10
41557;DHT22;27720;51.992;5.890;2022-07-04T09:07:29;23.10;76.00
41557;DHT22;27720;51.992;5.890;2022-07-04T09:09:57;23.20;76.20
41557;DHT22;27720;51.992;5.890;2022-07-04T09:12:23;23.10;76.20
41557;DHT22;27720;51.992;5.890;2022-07-04T09:14:49;23.00;76.30
41557;DHT22;27720;51.992;5.890;2022-07-04T09:17:17;23.10;76.50
41557;DHT22;27720;51.992;5.890;2022-07-04T09:19:43;23.30;76.20
41557;DHT22;27720;51.992;5.890;2022-07-04T09:22:09;23.60;75.70
41557;DHT22;27720;51.992;5.890;2022-07-04T09:24:50;23.60;74.00
41557;DHT22;27720;51.992;5.890;2022-07-04T09:27:30;23.50;73.50
41557;DHT22;27720;51.992;5.890;2022-07-04T09:29:56;23.50;73.30
41557;DHT22;27720;51.992;5.890;2022-07-04T09:32:46;23.30;73.30
41557;DHT22;27720;51.992;5.890;2022-07-04T09:35:20;23.30;73.80
41557;DHT22;27720;51.992;5.890;2022-07-04T09:37:52;23.30;73.90
41557;DHT22;27720;51.992;5.890;2022-07-04T09:40:32;23.30;74.10
41557;DHT22;27720;51.992;5.890;2022-07-04T09:43:00;23.30;74.10
41557;DHT22;27720;51.992;5.890;2022-07-04T09:45:29;23.40;74.00
41557;DHT22;27720;51.992;5.890;2022-07-04T09:47:57;23.50;74.20
41557;DHT22;27720;51.992;5.890;2022-07-04T09:50:25;23.70;73.90
41557;DHT22;27720;51.992;5.890;2022-07-04T09:53:00;23.90;73.50
41557;DHT22;27720;51.992;5.890;2022-07-04T09:55:33;24.20;72.90
41557;DHT22;27720;51.992;5.890;2022-07-04T09:58:02;24.20;72.10
41557;DHT22;27720;51.992;5.890;2022-07-04T10:00:33;24.40;70.90
41557;DHT22;27720;51.992;5.890;2022-07-04T10:03:19;24.60;70.20
41557;DHT22;27720;51.992;5.890;2022-07-04T10:06:03;24.80;69.50
41557;DHT22;27720;51.992;5.890;2022-07-04T10:08:33;25.00;68.50
41557;DHT22;27720;51.992;5.890;2022-07-04T10:10:59;25.20;67.80
41557;DHT22;27720;51.992;5.890;2022-07-04T10:13:26;25.30;67.30
41557;DHT22;27720;51.992;5.890;2022-07-04T10:15:52;25.50;66.50
41557;DHT22;27720;51.992;5.890;2022-07-04T10:18:20;25.70;65.30
41557;DHT22;27720;51.992;5.890;2022-07-04T10:20:47;25.80;64.10
41557;DHT22;27720;51.992;5.890;2022-07-04T10:23:14;25.80;63.00
41557;DHT22;27720;51.992;5.890;2022-07-04T10:25:41;26.00;63.00
41557;DHT22;27720;51.992;5.890;2022-07-04T10:28:08;26.00;61.70
41557;DHT22;27720;51.992;5.890;2022-07-04T10:30:39;26.00;62.30
41557;DHT22;27720;51.992;5.890;2022-07-04T10:33:08;26.10;60.40
41557;DHT22;27720;51.992;5.890;2022-07-04T10:35:54;26.10;61.10
41557;DHT22;27720;51.992;5.890;2022-07-04T10:38:25;26.00;59.90
41557;DHT22;27720;51.992;5.890;2022-07-04T10:41:06;26.00;59.50
41557;DHT22;27720;51.992;5.890;2022-07-04T10:48:58;25.70;60.70
41557;DHT22;27720;51.992;5.890;2022-07-04T10:54:35;25.70;61.20
41557;DHT22;27720;51.992;5.890;2022-07-04T10:57:10;25.70;61.40
41557;DHT22;27720;51.992;5.890;2022-07-04T10:59:36;25.70;61.60
41557;DHT22;27720;51.992;5.890;2022-07-04T11:04:59;25.80;61.30
41557;DHT22;27720;51.992;5.890;2022-07-04T11:18:03;26.20;60.60
41557;DHT22;27720;51.992;5.890;2022-07-04T11:20:31;26.20;59.10
41557;DHT22;27720;51.992;5.890;2022-07-04T11:23:13;26.40;58.90
41557;DHT22;27720;51.992;5.890;2022-07-04T11:25:43;26.70;58.80
41557;DHT22;27720;51.992;5.890;2022-07-04T11:28:27;27.00;58.50
41557;DHT22;27720;51.992;5.890;2022-07-04T11:30:58;27.20;57.90
41557;DHT22;27720;51.992;5.890;2022-07-04T11:33:31;27.20;57.30
41557;DHT22;27720;51.992;5.890;2022-07-04T11:36:09;27.30;56.80
41557;DHT22;27720;51.992;5.890;2022-07-04T11:41:22;27.20;57.00
41557;DHT22;27720;51.992;5.890;2022-07-04T11:44:10;27.40;57.80
41557;DHT22;27720;51.992;5.890;2022-07-04T11:47:34;27.50;56.60
41557;DHT22;27720;51.992;5.890;2022-07-04T11:50:05;27.70;56.60
41557;DHT22;27720;51.992;5.890;2022-07-04T11:55:08;28.10;55.70
41557;DHT22;27720;51.992;5.890;2022-07-04T11:57:41;28.50;55.10
41557;DHT22;27720;51.992;5.890;2022-07-04T12:00:10;28.80;54.10
41557;DHT22;27720;51.992;5.890;2022-07-04T12:02:37;29.00;53.80
41557;DHT22;27720;51.992;5.890;2022-07-04T12:05:08;29.00;52.90
41557;DHT22;27720;51.992;5.890;2022-07-04T12:07:36;29.00;53.40
41557;DHT22;27720;51.992;5.890;2022-07-04T12:10:21;29.10;53.60
41557;DHT22;27720;51.992;5.890;2022-07-04T12:12:57;29.30;52.70
41557;DHT22;27720;51.992;5.890;2022-07-04T12:15:24;29.50;52.50
41557;DHT22;27720;51.992;5.890;2022-07-04T12:17:52;29.60;51.30
41557;DHT22;27720;51.992;5.890;2022-07-04T12:20:22;29.50;50.90
41557;DHT22;27720;51.992;5.890;2022-07-04T12:22:59;29.40;51.10
41557;DHT22;27720;51.992;5.890;2022-07-04T12:25:30;29.60;51.00
41557;DHT22;27720;51.992;5.890;2022-07-04T12:28:13;29.60;50.50
41557;DHT22;27720;51.992;5.890;2022-07-04T12:30:57;29.80;50.30
41557;DHT22;27720;51.992;5.890;2022-07-04T12:33:24;30.00;50.50
41557;DHT22;27720;51.992;5.890;2022-07-04T12:36:04;30.20;50.20
41557;DHT22;27720;51.992;5.890;2022-07-04T12:38:36;30.40;49.70
41557;DHT22;27720;51.992;5.890;2022-07-04T12:48:37;30.60;48.10
41557;DHT22;27720;51.992;5.890;2022-07-04T12:51:13;30.60;48.30
41557;DHT22;27720;51.992;5.890;2022-07-04T12:53:40;30.70;47.60
41557;DHT22;27720;51.992;5.890;2022-07-04T12:56:07;30.60;47.50
41557;DHT22;27720;51.992;5.890;2022-07-04T12:58:33;30.60;47.00
41557;DHT22;27720;51.992;5.890;2022-07-04T13:00:59;30.60;46.60
41557;DHT22;27720;51.992;5.890;2022-07-04T13:03:25;30.70;46.60
41557;DHT22;27720;51.992;5.890;2022-07-04T13:05:51;30.90;46.90
41557;DHT22;27720;51.992;5.890;2022-07-04T13:08:16;31.00;46.30
41557;DHT22;27720;51.992;5.890;2022-07-04T13:10:42;30.90;46.60
41557;DHT22;27720;51.992;5.890;2022-07-04T13:13:08;30.90;46.90
41557;DHT22;27720;51.992;5.890;2022-07-04T13:15:34;30.80;47.10
41557;DHT22;27720;51.992;5.890;2022-07-04T13:18:00;30.60;47.10
41557;DHT22;27720;51.992;5.890;2022-07-04T13:20:26;30.60;47.70
41557;DHT22;27720;51.992;5.890;2022-07-04T13:22:53;30.70;47.80
41557;DHT22;27720;51.992;5.890;2022-07-04T13:25:19;30.80;47.70
41557;DHT22;27720;51.992;5.890;2022-07-04T13:27:45;30.80;47.00
41557;DHT22;27720;51.992;5.890;2022-07-04T13:30:11;30.90;46.10
41557;DHT22;27720;51.992;5.890;2022-07-04T13:32:37;30.90;46.20
41557;DHT22;27720;51.992;5.890;2022-07-04T13:35:03;31.00;46.00
41557;DHT22;27720;51.992;5.890;2022-07-04T13:37:29;31.10;45.70
41557;DHT22;27720;51.992;5.890;2022-07-04T13:39:55;31.20;45.30
41557;DHT22;27720;51.992;5.890;2022-07-04T13:42:21;31.20;45.30
41557;DHT22;27720;51.992;5.890;2022-07-04T13:45:06;31.40;45.10
41557;DHT22;27720;51.992;5.890;2022-07-04T13:47:32;31.60;45.50
41557;DHT22;27720;51.992;5.890;2022-07-04T13:49:58;31.80;45.30
41557;DHT22;27720;51.992;5.890;2022-07-04T13:52:24;31.70;45.10
41557;DHT22;27720;51.992;5.890;2022-07-04T13:54:50;31.70;44.70
41557;DHT22;27720;51.992;5.890;2022-07-04T13:57:16;31.60;44.20
41557;DHT22;27720;51.992;5.890;2022-07-04T13:59:42;31.60;44.50
41557;DHT22;27720;51.992;5.890;2022-07-04T14:02:07;31.70;44.60
41557;DHT22;27720;51.992;5.890;2022-07-04T14:04:33;31.80;44.60
41557;DHT22;27720;51.992;5.890;2022-07-04T14:06:59;31.90;44.60
41557;DHT22;27720;51.992;5.890;2022-07-04T14:09:24;31.90;44.10
41557;DHT22;27720;51.992;5.890;2022-07-04T14:11:50;31.90;44.10
41557;DHT22;27720;51.992;5.890;2022-07-04T14:14:16;32.00;44.00
41557;DHT22;27720;51.992;5.890;2022-07-04T14:16:41;32.00;44.00
41557;DHT22;27720;51.992;5.890;2022-07-04T14:19:10;31.90;43.60
41557;DHT22;27720;51.992;5.890;2022-07-04T14:21:36;31.80;43.70
